sensor_id;sensor_type;location;lat;lon;timestamp;pressure;altitude;pressure_sealevel;temperature;humidity
12471;BME280;36499;46.484;13.832;2023-04-10T00:02:23;93723.59;;;3.97;91.46
12471;BME280;36499;46.484;13.832;2023-04-10T00:04:50;93723.59;;;3.97;90.36
12471;BME280;36499;46.484;13.832;2023-04-10T00:07:17;93729.44;;;3.99;90.37
12471;BME280;36499;46.484;13.832;2023-04-10T00:09:44;93727.47;;;4.01;91.17
12471;BME280;36499;46.484;13.832;2023-04-10T00:12:11;93725.72;;;4.01;89.62
12471;BME280;36499;46.484;13.832;2023-04-10T00:14:39;93719.53;;;3.86;90.46
12471;BME280;36499;46.484;13.832;2023-04-10T00:17:07;93717.72;;;3.70;91.66
12471;BME280;36499;46.484;13.832;2023-04-10T00:19:35;93705.19;;;3.75;91.99
12471;BME280;36499;46.484;13.832;2023-04-10T00:22:03;93714.50;;;3.68;92.94
12471;BME280;36499;46.484;13.832;2023-04-10T00:24:30;93715.28;;;3.61;91.82
12471;BME280;36499;46.484;13.832;2023-04-10T00:26:57;93715.41;;;3.59;92.29
12471;BME280;36499;46.484;13.832;2023-04-10T00:29:24;93711.44;;;3.73;93.04
12471;BME280;36499;46.484;13.832;2023-04-10T00:31:51;93704.81;;;3.70;91.87
12471;BME280;36499;46.484;13.832;2023-04-10T00:34:18;93712.06;;;3.67;92.17
12471;BME280;36499;46.484;13.832;2023-04-10T00:36:46;93698.69;;;3.63;92.58
12471;BME280;36499;46.484;13.832;2023-04-10T00:39:13;93700.59;;;3.53;92.84
12471;BME280;36499;46.484;13.832;2023-04-10T00:41:41;93700.63;;;3.61;92.59
12471;BME280;36499;46.484;13.832;2023-04-10T00:44:08;93689.97;;;3.56;92.65
12471;BME280;36499;46.484;13.832;2023-04-10T00:46:37;93708.28;;;3.45;93.54
12471;BME280;36499;46.484;13.832;2023-04-10T00:49:05;93705.84;;;3.44;93.92
12471;BME280;36499;46.484;13.832;2023-04-10T00:51:35;93712.75;;;3.43;93.54
12471;BME280;36499;46.484;13.832;2023-04-10T00:54:04;93704.22;;;3.34;94.94
12471;BME280;36499;46.484;13.832;2023-04-10T00:56:32;93704.91;;;3.45;93.85
12471;BME280;36499;46.484;13.832;2023-04-10T00:59:00;93696.03;;;3.47;93.47
12471;BME280;36499;46.484;13.832;2023-04-10T01:01:28;93703.13;;;3.45;94.78
12471;BME280;36499;46.484;13.832;2023-04-10T01:03:56;93705.03;;;3.43;94.46
12471;BME280;36499;46.484;13.832;2023-04-10T01:06:39;93707.16;;;3.48;93.89
12471;BME280;36499;46.484;13.832;2023-04-10T01:09:20;93711.03;;;3.52;94.11
12471;BME280;36499;46.484;13.832;2023-04-10T01:11:59;93715.38;;;3.51;93.92
12471;BME280;36499;46.484;13.832;2023-04-10T01:14:41;93711.81;;;3.44;93.85
12471;BME280;36499;46.484;13.832;2023-04-10T01:17:21;93710.69;;;3.47;94.67
12471;BME280;36499;46.484;13.832;2023-04-10T01:20:02;93713.94;;;3.49;93.72
12471;BME280;36499;46.484;13.832;2023-04-10T01:22:35;93719.59;;;3.52;93.51
12471;BME280;36499;46.484;13.832;2023-04-10T01:25:33;93713.44;;;3.45;93.25
12471;BME280;36499;46.484;13.832;2023-04-10T01:28:29;93716.06;;;3.53;93.60
12471;BME280;36499;46.484;13.832;2023-04-10T01:31:01;93721.50;;;3.50;93.41
12471;BME280;36499;46.484;13.832;2023-04-10T01:33:37;93720.91;;;3.56;93.31
12471;BME280;36499;46.484;13.832;2023-04-10T01:36:08;93727.03;;;3.63;91.92
12471;BME280;36499;46.484;13.832;2023-04-10T01:38:41;93722.28;;;3.76;92.37
12471;BME280;36499;46.484;13.832;2023-04-10T01:41:09;93717.59;;;3.80;92.21
12471;BME280;36499;46.484;13.832;2023-04-10T01:43:38;93707.09;;;3.73;91.37
12471;BME280;36499;46.484;13.832;2023-04-10T01:46:08;93716.28;;;3.68;92.32
12471;BME280;36499;46.484;13.832;2023-04-10T01:48:37;93713.06;;;3.74;91.92
12471;BME280;36499;46.484;13.832;2023-04-10T01:51:08;93712.75;;;3.77;91.17
12471;BME280;36499;46.484;13.832;2023-04-10T01:53:37;93712.44;;;3.80;91.23
12471;BME280;36499;46.484;13.832;2023-04-10T01:56:07;93712.94;;;3.83;91.06
12471;BME280;36499;46.484;13.832;2023-04-10T01:58:35;93708.28;;;3.87;91.22
12471;BME280;36499;46.484;13.832;2023-04-10T02:01:02;93707.47;;;3.86;91.17
12471;BME280;36499;46.484;13.832;2023-04-10T02:03:31;93710.38;;;3.83;90.85
12471;BME280;36499;46.484;13.832;2023-04-10T02:06:10;93710.66;;;3.80;91.89
12471;BME280;36499;46.484;13.832;2023-04-10T02:08:48;93711.56;;;3.63;91.42
12471;BME280;36499;46.484;13.832;2023-04-10T02:11:29;93713.69;;;3.68;91.33
12471;BME280;36499;46.484;13.832;2023-04-10T02:14:00;93718.88;;;3.76;91.59
12471;BME280;36499;46.484;13.832;2023-04-10T02:16:31;93712.75;;;3.77;91.44
12471;BME280;36499;46.484;13.832;2023-04-10T02:19:02;93715.81;;;3.72;91.44
12471;BME280;36499;46.484;13.832;2023-04-10T02:21:32;93710.00;;;3.78;91.45
12471;BME280;36499;46.484;13.832;2023-04-10T02:24:00;93706.13;;;3.74;91.35
12471;BME280;36499;46.484;13.832;2023-04-10T02:26:27;93719.00;;;3.66;91.50
12471;BME280;36499;46.484;13.832;2023-04-10T02:28:54;93712.25;;;3.73;92.00
12471;BME280;36499;46.484;13.832;2023-04-10T02:31:21;93709.69;;;3.81;91.66
12471;BME280;36499;46.484;13.832;2023-04-10T02:33:50;93697.75;;;3.80;91.42
12471;BME280;36499;46.484;13.832;2023-04-10T02:36:18;93705.50;;;3.72;90.54
12471;BME280;36499;46.484;13.832;2023-04-10T02:38:46;93712.25;;;3.73;90.92
12471;BME280;36499;46.484;13.832;2023-04-10T02:41:13;93708.38;;;3.77;91.81
12471;BME280;36499;46.484;13.832;2023-04-10T02:43:40;93703.53;;;3.66;92.37
12471;BME280;36499;46.484;13.832;2023-04-10T02:46:07;93701.44;;;3.70;92.80
12471;BME280;36499;46.484;13.832;2023-04-10T02:48:34;93705.31;;;3.74;91.40
12471;BME280;36499;46.484;13.832;2023-04-10T02:51:01;93699.63;;;3.62;91.41
12471;BME280;36499;46.484;13.832;2023-04-10T02:53:32;93702.72;;;3.66;91.89
12471;BME280;36499;46.484;13.832;2023-04-10T02:55:59;93702.22;;;3.62;91.40
12471;BME280;36499;46.484;13.832;2023-04-10T02:58:27;93703.75;;;3.47;92.43
12471;BME280;36499;46.484;13.832;2023-04-10T03:00:55;93714.06;;;3.47;92.84
12471;BME280;36499;46.484;13.832;2023-04-10T03:03:23;93712.03;;;3.59;93.02
12471;BME280;36499;46.484;13.832;2023-04-10T03:05:50;93716.09;;;3.61;91.74
12471;BME280;36499;46.484;13.832;2023-04-10T03:08:17;93713.78;;;3.58;91.65
12471;BME280;36499;46.484;13.832;2023-04-10T03:10:47;93714.47;;;3.60;91.49
12471;BME280;36499;46.484;13.832;2023-04-10T03:13:14;93708.34;;;3.61;91.57
12471;BME280;36499;46.484;13.832;2023-04-10T03:15:41;93705.47;;;3.64;91.31
12471;BME280;36499;46.484;13.832;2023-04-10T03:18:08;93713.78;;;3.58;92.43
12471;BME280;36499;46.484;13.832;2023-04-10T03:20:36;93703.69;;;3.65;92.25
12471;BME280;36499;46.484;13.832;2023-04-10T03:23:04;93708.03;;;3.64;91.27
12471;BME280;36499;46.484;13.832;2023-04-10T03:25:33;93703.53;;;3.66;91.51
12471;BME280;36499;46.484;13.832;2023-04-10T03:28:02;93703.31;;;3.52;91.99
12471;BME280;36499;46.484;13.832;2023-04-10T03:30:30;93714.28;;;3.54;91.64
12471;BME280;36499;46.484;13.832;2023-04-10T03:32:57;93712.50;;;3.54;92.10
12471;BME280;36499;46.484;13.832;2023-04-10T03:35:24;93704.75;;;3.54;90.90
12471;BME280;36499;46.484;13.832;2023-04-10T03:37:51;93711.00;;;3.44;91.76
12471;BME280;36499;46.484;13.832;2023-04-10T03:40:18;93715.84;;;3.47;91.74
12471;BME280;36499;46.484;13.832;2023-04-10T03:42:45;93711.81;;;3.44;92.60
12471;BME280;36499;46.484;13.832;2023-04-10T03:45:14;93712.75;;;3.43;91.55
12471;BME280;36499;46.484;13.832;2023-04-10T03:47:41;93711.66;;;3.46;92.33
12471;BME280;36499;46.484;13.832;2023-04-10T03:50:09;93699.28;;;3.49;92.30
12471;BME280;36499;46.484;13.832;2023-04-10T03:52:36;93713.94;;;3.49;91.29
12471;BME280;36499;46.484;13.832;2023-04-10T03:55:04;93711.50;;;3.47;91.61
12471;BME280;36499;46.484;13.832;2023-04-10T03:57:31;93715.06;;;3.46;90.58
12471;BME280;36499;46.484;13.832;2023-04-10T03:59:58;93718.22;;;3.40;90.54
12471;BME280;36499;46.484;13.832;2023-04-10T04:02:26;93719.81;;;3.33;89.82
12471;BME280;36499;46.484;13.832;2023-04-10T04:04:54;93723.78;;;3.27;91.29
12471;BME280;36499;46.484;13.832;2023-04-10T04:07:21;93727.81;;;3.22;91.45
12471;BME280;36499;46.484;13.832;2023-04-10T04:09:48;93729.72;;;3.20;91.63
12471;BME280;36499;46.484;13.832;2023-04-10T04:12:15;93728.72;;;3.13;92.71
12471;BME280;36499;46.484;13.832;2023-04-10T04:14:42;93735.34;;;3.15;91.92
12471;BME280;36499;46.484;13.832;2023-04-10T04:17:10;93739.81;;;3.13;92.48
12471;BME280;36499;46.484;13.832;2023-04-10T04:19:38;93736.59;;;3.11;91.42
12471;BME280;36499;46.484;13.832;2023-04-10T04:22:05;93734.84;;;3.12;92.15
12471;BME280;36499;46.484;13.832;2023-04-10T04:24:32;93739.69;;;2.89;92.66
12471;BME280;36499;46.484;13.832;2023-04-10T04:26:59;93740.78;;;2.86;93.75
12471;BME280;36499;46.484;13.832;2023-04-10T04:29:27;93751.25;;;2.85;94.38
12471;BME280;36499;46.484;13.832;2023-04-10T04:31:54;93751.56;;;2.90;94.53
12471;BME280;36499;46.484;13.832;2023-04-10T04:34:21;93745.09;;;2.86;94.08
12471;BME280;36499;46.484;13.832;2023-04-10T04:36:49;93748.72;;;2.75;94.92
12471;BME280;36499;46.484;13.832;2023-04-10T04:39:17;93752.84;;;2.86;94.20
12471;BME280;36499;46.484;13.832;2023-04-10T04:41:44;93755.28;;;2.87;93.88
12471;BME280;36499;46.484;13.832;2023-04-10T04:44:11;93760.31;;;2.97;93.63
12471;BME280;36499;46.484;13.832;2023-04-10T04:46:38;93760.81;;;3.01;93.07
12471;BME280;36499;46.484;13.832;2023-04-10T04:49:05;93766.06;;;2.91;92.99
12471;BME280;36499;46.484;13.832;2023-04-10T04:51:32;93762.69;;;2.90;93.40
12471;BME280;36499;46.484;13.832;2023-04-10T04:54:01;93761.81;;;2.82;93.80
12471;BME280;36499;46.484;13.832;2023-04-10T04:56:29;93772.19;;;2.90;93.69
12471;BME280;36499;46.484;13.832;2023-04-10T04:58:56;93762.38;;;2.94;93.58
12471;BME280;36499;46.484;13.832;2023-04-10T05:01:23;93760.94;;;2.91;93.63
12471;BME280;36499;46.484;13.832;2023-04-10T05:03:50;93766.88;;;2.92;92.61
12471;BME280;36499;46.484;13.832;2023-04-10T05:06:17;93770.09;;;2.94;93.11
12471;BME280;36499;46.484;13.832;2023-04-10T05:08:45;93773.34;;;2.96;92.76
12471;BME280;36499;46.484;13.832;2023-04-10T05:11:13;93768.78;;;2.89;92.56
12471;BME280;36499;46.484;13.832;2023-04-10T05:13:40;93771.13;;;3.01;93.32
12471;BME280;36499;46.484;13.832;2023-04-10T05:16:07;93773.13;;;3.07;92.10
12471;BME280;36499;46.484;13.832;2023-04-10T05:18:35;93769.78;;;3.14;92.61
12471;BME280;36499;46.484;13.832;2023-04-10T05:21:02;93771.25;;;3.17;91.87
12471;BME280;36499;46.484;13.832;2023-04-10T05:23:29;93766.66;;;3.03;91.67
12471;BME280;36499;46.484;13.832;2023-04-10T05:25:56;93768.09;;;3.05;91.85
12471;BME280;36499;46.484;13.832;2023-04-10T05:28:25;93764.13;;;3.11;93.16
12471;BME280;36499;46.484;13.832;2023-04-10T05:30:52;93766.91;;;3.17;91.50
12471;BME280;36499;46.484;13.832;2023-04-10T05:33:19;93772.88;;;3.18;91.53
12471;BME280;36499;46.484;13.832;2023-04-10T05:35:47;93767.41;;;3.21;90.97
12471;BME280;36499;46.484;13.832;2023-04-10T05:38:14;93769.59;;;3.33;90.64
12471;BME280;36499;46.484;13.832;2023-04-10T05:40:44;93768.06;;;3.49;89.84
12471;BME280;36499;46.484;13.832;2023-04-10T05:43:11;93760.31;;;3.49;90.49
12471;BME280;36499;46.484;13.832;2023-04-10T05:45:43;93758.13;;;3.62;90.62
12471;BME280;36499;46.484;13.832;2023-04-10T05:48:10;93763.63;;;3.67;89.55
12471;BME280;36499;46.484;13.832;2023-04-10T05:50:37;93759.63;;;3.80;88.81
12471;BME280;36499;46.484;13.832;2023-04-10T05:53:04;93762.94;;;3.91;88.56
12471;BME280;36499;46.484;13.832;2023-04-10T05:55:31;93768.13;;;3.99;88.34
12471;BME280;36499;46.484;13.832;2023-04-10T05:57:58;93763.50;;;4.18;88.01
12471;BME280;36499;46.484;13.832;2023-04-10T06:00:25;93766.41;;;4.31;86.10
12471;BME280;36499;46.484;13.832;2023-04-10T06:02:54;93775.50;;;4.44;85.85
12471;BME280;36499;46.484;13.832;2023-04-10T06:05:21;93775.81;;;4.57;83.43
12471;BME280;36499;46.484;13.832;2023-04-10T06:07:48;93768.88;;;4.57;82.05
12471;BME280;36499;46.484;13.832;2023-04-10T06:10:16;93768.75;;;4.75;81.20
12471;BME280;36499;46.484;13.832;2023-04-10T06:12:43;93769.53;;;4.83;79.29
12471;BME280;36499;46.484;13.832;2023-04-10T06:15:11;93778.59;;;4.88;78.15
12471;BME280;36499;46.484;13.832;2023-04-10T06:17:41;93777.63;;;4.89;79.08
12471;BME280;36499;46.484;13.832;2023-04-10T06:20:11;93783.91;;;5.02;77.18
12471;BME280;36499;46.484;13.832;2023-04-10T06:22:38;93776.16;;;5.10;76.25
12471;BME280;36499;46.484;13.832;2023-04-10T06:25:06;93780.03;;;5.06;75.97
12471;BME280;36499;46.484;13.832;2023-04-10T06:27:33;93769.03;;;5.37;77.00
12471;BME280;36499;46.484;13.832;2023-04-10T06:30:01;93766.25;;;5.62;75.13
12471;BME280;36499;46.484;13.832;2023-04-10T06:32:28;93768.00;;;5.70;74.86
12471;BME280;36499;46.484;13.832;2023-04-10T06:34:56;93772.16;;;5.79;73.94
12471;BME280;36499;46.484;13.832;2023-04-10T06:37:28;93769.75;;;5.77;74.29
12471;BME280;36499;46.484;13.832;2023-04-10T06:40:05;93771.53;;;5.69;73.66
12471;BME280;36499;46.484;13.832;2023-04-10T06:42:33;93774.91;;;5.86;74.53
12471;BME280;36499;46.484;13.832;2023-04-10T06:45:01;93777.16;;;5.97;74.24
12471;BME280;36499;46.484;13.832;2023-04-10T06:47:29;93769.28;;;6.13;74.30
12471;BME280;36499;46.484;13.832;2023-04-10T06:49:56;93763.63;;;6.17;73.51
12471;BME280;36499;46.484;13.832;2023-04-10T06:52:23;93768.75;;;6.25;71.78
12471;BME280;36499;46.484;13.832;2023-04-10T06:54:52;93766.66;;;6.21;70.32
12471;BME280;36499;46.484;13.832;2023-04-10T06:57:19;93758.22;;;6.35;72.13
12471;BME280;36499;46.484;13.832;2023-04-10T06:59:46;93753.44;;;6.47;71.16
12471;BME280;36499;46.484;13.832;2023-04-10T07:02:13;93761.13;;;6.55;68.66
12471;BME280;36499;46.484;13.832;2023-04-10T07:04:41;93759.31;;;6.86;66.23
12471;BME280;36499;46.484;13.832;2023-04-10T07:07:08;93756.28;;;7.20;65.04
12471;BME280;36499;46.484;13.832;2023-04-10T07:09:37;93748.81;;;7.40;60.29
12471;BME280;36499;46.484;13.832;2023-04-10T07:12:06;93741.59;;;7.64;56.82
12471;BME280;36499;46.484;13.832;2023-04-10T07:14:33;93747.75;;;7.93;55.42
12471;BME280;36499;46.484;13.832;2023-04-10T07:17:01;93733.88;;;8.00;52.49
12471;BME280;36499;46.484;13.832;2023-04-10T07:19:28;93741.03;;;8.13;52.96
12471;BME280;36499;46.484;13.832;2023-04-10T07:21:56;93746.66;;;8.31;49.78
12471;BME280;36499;46.484;13.832;2023-04-10T07:24:23;93743.25;;;8.31;43.71
12471;BME280;36499;46.484;13.832;2023-04-10T07:26:50;93753.56;;;8.60;48.98
12471;BME280;36499;46.484;13.832;2023-04-10T07:29:19;93738.13;;;8.52;44.11
12471;BME280;36499;46.484;13.832;2023-04-10T07:31:46;93742.38;;;8.59;46.78
12471;BME280;36499;46.484;13.832;2023-04-10T07:34:14;93745.00;;;8.81;46.18
12471;BME280;36499;46.484;13.832;2023-04-10T07:36:41;93739.97;;;9.00;46.29
12471;BME280;36499;46.484;13.832;2023-04-10T07:39:08;93740.13;;;8.71;44.20
12471;BME280;36499;46.484;13.832;2023-04-10T07:41:35;93743.31;;;8.73;45.80
12471;BME280;36499;46.484;13.832;2023-04-10T07:44:03;93741.03;;;8.85;46.36
12471;BME280;36499;46.484;13.832;2023-04-10T07:46:31;93744.84;;;9.10;42.66
12471;BME280;36499;46.484;13.832;2023-04-10T07:48:59;93744.97;;;9.23;42.13
12471;BME280;36499;46.484;13.832;2023-04-10T07:51:26;93740.50;;;9.38;44.81
12471;BME280;36499;46.484;13.832;2023-04-10T07:53:53;93749.44;;;9.57;45.33
12471;BME280;36499;46.484;13.832;2023-04-10T07:56:21;93746.25;;;9.61;44.76
12471;BME280;36499;46.484;13.832;2023-04-10T07:58:50;93736.13;;;9.45;41.71
12471;BME280;36499;46.484;13.832;2023-04-10T08:01:17;93742.00;;;9.54;42.63
12471;BME280;36499;46.484;13.832;2023-04-10T08:03:45;93744.19;;;9.85;44.18
12471;BME280;36499;46.484;13.832;2023-04-10T08:06:13;93748.91;;;10.09;42.39
12471;BME280;36499;46.484;13.832;2023-04-10T08:08:41;93745.03;;;10.26;41.56
12471;BME280;36499;46.484;13.832;2023-04-10T08:11:24;93733.00;;;10.32;41.01
12471;BME280;36499;46.484;13.832;2023-04-10T08:13:52;93742.47;;;10.39;40.76
12471;BME280;36499;46.484;13.832;2023-04-10T08:16:23;93733.31;;;10.50;40.85
12471;BME280;36499;46.484;13.832;2023-04-10T08:18:52;93726.53;;;10.75;41.75
12471;BME280;36499;46.484;13.832;2023-04-10T08:21:21;93724.56;;;11.03;44.42
12471;BME280;36499;46.484;13.832;2023-04-10T08:23:49;93718.78;;;11.21;42.08
12471;BME280;36499;46.484;13.832;2023-04-10T08:26:17;93713.13;;;11.24;41.19
12471;BME280;36499;46.484;13.832;2023-04-10T08:28:46;93720.16;;;11.17;40.97
12471;BME280;36499;46.484;13.832;2023-04-10T08:31:15;93729.78;;;10.97;39.20
12471;BME280;36499;46.484;13.832;2023-04-10T08:33:42;93728.59;;;11.13;40.97
12471;BME280;36499;46.484;13.832;2023-04-10T08:36:12;93725.13;;;10.73;40.09
12471;BME280;36499;46.484;13.832;2023-04-10T08:38:40;93720.09;;;10.65;38.57
12471;BME280;36499;46.484;13.832;2023-04-10T08:41:10;93725.94;;;10.80;36.83
12471;BME280;36499;46.484;13.832;2023-04-10T08:43:37;93727.78;;;11.12;38.33
12471;BME280;36499;46.484;13.832;2023-04-10T08:46:05;93715.75;;;11.37;39.71
12471;BME280;36499;46.484;13.832;2023-04-10T08:48:38;93726.38;;;11.49;43.60
12471;BME280;36499;46.484;13.832;2023-04-10T08:51:14;93717.13;;;11.86;39.42
12471;BME280;36499;46.484;13.832;2023-04-10T08:53:44;93718.88;;;12.05;38.12
12471;BME280;36499;46.484;13.832;2023-04-10T08:56:16;93716.06;;;12.13;38.12
12471;BME280;36499;46.484;13.832;2023-04-10T08:58:44;93721.31;;;12.00;38.09
12471;BME280;36499;46.484;13.832;2023-04-10T09:01:11;93720.53;;;11.93;38.93
12471;BME280;36499;46.484;13.832;2023-04-10T09:03:38;93729.34;;;11.98;40.24
12471;BME280;36499;46.484;13.832;2023-04-10T09:06:06;93719.06;;;12.10;39.50
12471;BME280;36499;46.484;13.832;2023-04-10T09:08:35;93730.13;;;11.99;39.97
12471;BME280;36499;46.484;13.832;2023-04-10T09:11:02;93715.56;;;12.29;37.99
12471;BME280;36499;46.484;13.832;2023-04-10T09:13:38;93707.72;;;12.36;36.52
12471;BME280;36499;46.484;13.832;2023-04-10T09:16:06;93706.69;;;12.37;36.37
12471;BME280;36499;46.484;13.832;2023-04-10T09:18:48;93701.06;;;12.33;39.56
12471;BME280;36499;46.484;13.832;2023-04-10T09:21:18;93706.75;;;12.68;36.66
12471;BME280;36499;46.484;13.832;2023-04-10T09:23:52;93699.63;;;12.82;37.53
12471;BME280;36499;46.484;13.832;2023-04-10T09:26:27;93705.66;;;13.14;37.35
12471;BME280;36499;46.484;13.832;2023-04-10T09:29:02;93704.28;;;13.36;38.31
12471;BME280;36499;46.484;13.832;2023-04-10T09:31:32;93697.94;;;13.50;35.27
12471;BME280;36499;46.484;13.832;2023-04-10T09:34:13;93696.97;;;13.44;36.06
12471;BME280;36499;46.484;13.832;2023-04-10T09:36:42;93689.38;;;13.61;35.23
12471;BME280;36499;46.484;13.832;2023-04-10T09:39:11;93693.53;;;13.69;33.64
12471;BME280;36499;46.484;13.832;2023-04-10T09:41:49;93679.84;;;13.67;35.00
12471;BME280;36499;46.484;13.832;2023-04-10T09:44:27;93680.72;;;13.79;37.27
12471;BME280;36499;46.484;13.832;2023-04-10T09:46:55;93674.91;;;13.95;36.13
12471;BME280;36499;46.484;13.832;2023-04-10T09:49:22;93675.00;;;13.88;32.44
12471;BME280;36499;46.484;13.832;2023-04-10T09:51:49;93668.19;;;13.63;32.35
12471;BME280;36499;46.484;13.832;2023-04-10T09:54:18;93667.06;;;13.77;37.90
12471;BME280;36499;46.484;13.832;2023-04-10T09:57:00;93674.41;;;14.05;35.08
12471;BME280;36499;46.484;13.832;2023-04-10T09:59:28;93667.94;;;14.07;34.10
12471;BME280;36499;46.484;13.832;2023-04-10T10:01:55;93665.38;;;14.01;32.87
12471;BME280;36499;46.484;13.832;2023-04-10T10:04:24;93654.97;;;13.76;37.27
12471;BME280;36499;46.484;13.832;2023-04-10T10:06:51;93663.09;;;13.68;34.54
12471;BME280;36499;46.484;13.832;2023-04-10T10:09:20;93645.72;;;13.73;35.06
12471;BME280;36499;46.484;13.832;2023-04-10T10:11:50;93641.94;;;13.87;36.34
12471;BME280;36499;46.484;13.832;2023-04-10T10:14:20;93637.06;;;13.91;35.87
12471;BME280;36499;46.484;13.832;2023-04-10T10:16:51;93642.28;;;14.09;33.01
12471;BME280;36499;46.484;13.832;2023-04-10T10:19:30;93638.69;;;14.40;36.16
12471;BME280;36499;46.484;13.832;2023-04-10T10:21:59;93636.50;;;14.67;35.22
12471;BME280;36499;46.484;13.832;2023-04-10T10:24:30;93631.00;;;14.57;35.41
12471;BME280;36499;46.484;13.832;2023-04-10T10:27:00;93640.44;;;14.76;34.44
12471;BME280;36499;46.484;13.832;2023-04-10T10:29:31;93634.88;;;14.96;33.77
12471;BME280;36499;46.484;13.832;2023-04-10T10:32:02;93628.84;;;14.65;32.44
12471;BME280;36499;46.484;13.832;2023-04-10T10:34:29;93630.91;;;14.63;35.76
12471;BME280;36499;46.484;13.832;2023-04-10T10:36:57;93630.88;;;14.93;35.06
12471;BME280;36499;46.484;13.832;2023-04-10T10:39:36;93630.59;;;15.24;33.73
12471;BME280;36499;46.484;13.832;2023-04-10T10:42:13;93622.00;;;15.17;30.67
12471;BME280;36499;46.484;13.832;2023-04-10T10:44:48;93621.44;;;15.15;31.67
12471;BME280;36499;46.484;13.832;2023-04-10T10:47:21;93621.56;;;15.32;34.08
12471;BME280;36499;46.484;13.832;2023-04-10T10:49:57;93619.28;;;15.47;33.37
12471;BME280;36499;46.484;13.832;2023-04-10T10:52:42;93613.19;;;15.12;29.36
12471;BME280;36499;46.484;13.832;2023-04-10T10:55:33;93616.03;;;14.57;30.07
12471;BME280;36499;46.484;13.832;2023-04-10T10:58:05;93613.16;;;14.88;35.67
12471;BME280;36499;46.484;13.832;2023-04-10T11:01:08;93605.91;;;15.14;32.69
12471;BME280;36499;46.484;13.832;2023-04-10T11:03:35;93596.06;;;14.98;32.75
12471;BME280;36499;46.484;13.832;2023-04-10T11:06:05;93595.41;;;15.02;33.08
12471;BME280;36499;46.484;13.832;2023-04-10T11:08:38;93594.25;;;14.98;34.84
12471;BME280;36499;46.484;13.832;2023-04-10T11:11:12;93601.22;;;15.27;34.41
12471;BME280;36499;46.484;13.832;2023-04-10T11:14:11;93592.31;;;15.28;33.60
12471;BME280;36499;46.484;13.832;2023-04-10T11:16:44;93584.78;;;15.67;36.92
12471;BME280;36499;46.484;13.832;2023-04-10T11:19:12;93582.19;;;15.95;33.80
12471;BME280;36499;46.484;13.832;2023-04-10T11:22:03;93576.59;;;16.03;34.26
12471;BME280;36499;46.484;13.832;2023-04-10T11:24:59;93575.41;;;16.11;32.27
12471;BME280;36499;46.484;13.832;2023-04-10T11:27:44;93575.25;;;16.17;33.15
12471;BME280;36499;46.484;13.832;2023-04-10T11:30:33;93574.03;;;16.37;30.61
12471;BME280;36499;46.484;13.832;2023-04-10T11:33:03;93576.59;;;16.03;32.01
12471;BME280;36499;46.484;13.832;2023-04-10T11:35:33;93576.38;;;15.93;35.63
12471;BME280;36499;46.484;13.832;2023-04-10T11:38:15;93573.22;;;15.68;30.69
12471;BME280;36499;46.484;13.832;2023-04-10T11:41:01;93570.94;;;14.78;33.38
12471;BME280;36499;46.484;13.832;2023-04-10T11:43:31;93573.56;;;14.78;31.98
12471;BME280;36499;46.484;13.832;2023-04-10T11:46:05;93564.72;;;14.61;31.94
12471;BME280;36499;46.484;13.832;2023-04-10T11:48:33;93572.69;;;13.59;32.51
12471;BME280;36499;46.484;13.832;2023-04-10T11:51:09;93568.97;;;14.32;35.41
12471;BME280;36499;46.484;13.832;2023-04-10T11:53:37;93568.66;;;14.82;32.01
12471;BME280;36499;46.484;13.832;2023-04-10T11:56:13;93559.66;;;15.01;34.86
12471;BME280;36499;46.484;13.832;2023-04-10T11:58:42;93566.25;;;14.09;34.28
12471;BME280;36499;46.484;13.832;2023-04-10T12:01:09;93554.16;;;14.08;33.41
12471;BME280;36499;46.484;13.832;2023-04-10T12:03:40;93561.69;;;14.34;33.79
12471;BME280;36499;46.484;13.832;2023-04-10T12:06:10;93548.97;;;14.61;35.24
12471;BME280;36499;46.484;13.832;2023-04-10T12:08:41;93552.69;;;14.83;31.96
12471;BME280;36499;46.484;13.832;2023-04-10T12:11:10;93541.59;;;15.40;33.63
12471;BME280;36499;46.484;13.832;2023-04-10T12:13:38;93537.59;;;15.60;30.76
12471;BME280;36499;46.484;13.832;2023-04-10T12:16:09;93541.47;;;15.58;30.65
12471;BME280;36499;46.484;13.832;2023-04-10T12:18:37;93532.91;;;15.39;29.93
12471;BME280;36499;46.484;13.832;2023-04-10T12:21:05;93534.28;;;15.53;29.87
12471;BME280;36499;46.484;13.832;2023-04-10T12:23:35;93526.03;;;15.73;31.72
12471;BME280;36499;46.484;13.832;2023-04-10T12:26:11;93524.56;;;16.22;32.47
12471;BME280;36499;46.484;13.832;2023-04-10T12:28:41;93521.13;;;16.50;31.94
12471;BME280;36499;46.484;13.832;2023-04-10T12:31:10;93510.97;;;16.70;31.07
12471;BME280;36499;46.484;13.832;2023-04-10T12:33:38;93516.38;;;16.18;29.91
12471;BME280;36499;46.484;13.832;2023-04-10T12:36:18;93507.13;;;16.32;30.24
12471;BME280;36499;46.484;13.832;2023-04-10T12:38:46;93512.19;;;15.77;30.06
12471;BME280;36499;46.484;13.832;2023-04-10T12:41:20;93514.44;;;14.99;31.20
12471;BME280;36499;46.484;13.832;2023-04-10T12:43:48;93511.56;;;14.77;32.15
12471;BME280;36499;46.484;13.832;2023-04-10T12:46:25;93506.13;;;15.14;32.93
12471;BME280;36499;46.484;13.832;2023-04-10T12:48:53;93506.03;;;15.49;31.38
12471;BME280;36499;46.484;13.832;2023-04-10T12:51:41;93498.94;;;16.01;30.22
12471;BME280;36499;46.484;13.832;2023-04-10T12:54:09;93497.81;;;15.45;30.50
12471;BME280;36499;46.484;13.832;2023-04-10T12:56:41;93495.28;;;14.99;30.77
12471;BME280;36499;46.484;13.832;2023-04-10T12:59:08;93501.19;;;15.17;30.77
12471;BME280;36499;46.484;13.832;2023-04-10T13:01:38;93505.03;;;15.38;29.94
12471;BME280;36499;46.484;13.832;2023-04-10T13:04:05;93499.13;;;15.19;29.80
12471;BME280;36499;46.484;13.832;2023-04-10T13:06:41;93495.13;;;15.80;32.76
12471;BME280;36499;46.484;13.832;2023-04-10T13:09:08;93493.78;;;15.77;29.04
12471;BME280;36499;46.484;13.832;2023-04-10T13:11:35;93489.94;;;16.13;29.84